sensor_id;sensor_type;location;lat;lon;timestamp;P1;P2;P0
60816;PMS5003;51921;51.518;-3.188;2022-07-29T00:01:09;13;13;
60816;PMS5003;51921;51.518;-3.188;2022-07-29T00:03:34;13;13;
60816;PMS5003;51921;51.518;-3.188;2022-07-29T00:05:59;14;13;
60816;PMS5003;51921;51.518;-3.188;2022-07-29T00:08:25;12;12;
60816;PMS5003;51921;51.518;-3.188;2022-07-29T00:10:50;12;12;
60816;PMS5003;51921;51.518;-3.188;2022-07-29T00:13:16;14;13;
60816;PMS5003;51921;51.518;-3.188;2022-07-29T00:15:41;13;12;
60816;PMS5003;51921;51.518;-3.188;2022-07-29T00:18:06;15;14;
60816;PMS5003;51921;51.518;-3.188;2022-07-29T00:20:32;17;17;
60816;PMS5003;51921;51.518;-3.188;2022-07-29T00:22:57;15;15;
60816;PMS5003;51921;51.518;-3.188;2022-07-29T00:25:22;16;15;
60816;PMS5003;51921;51.518;-3.188;2022-07-29T00:27:48;14;13;
60816;PMS5003;51921;51.518;-3.188;2022-07-29T00:30:13;14;13;
60816;PMS5003;51921;51.518;-3.188;2022-07-29T00:32:38;12;12;
60816;PMS5003;51921;51.518;-3.188;2022-07-29T00:35:04;15;14;
60816;PMS5003;51921;51.518;-3.188;2022-07-29T00:37:29;14;14;
60816;PMS5003;51921;51.518;-3.188;2022-07-29T00:39:54;16;15;
60816;PMS5003;51921;51.518;-3.188;2022-07-29T00:42:19;15;15;
60816;PMS5003;51921;51.518;-3.188;2022-07-29T00:44:44;13;13;
60816;PMS5003;51921;51.518;-3.188;2022-07-29T00:47:10;13;13;
60816;PMS5003;51921;51.518;-3.188;2022-07-29T00:49:35;14;14;
60816;PMS5003;51921;51.518;-3.188;2022-07-29T00:52:01;19;18;
60816;PMS5003;51921;51.518;-3.188;2022-07-29T00:54:26;16;16;
60816;PMS5003;51921;51.518;-3.188;2022-07-29T00:56:51;15;15;
60816;PMS5003;51921;51.518;-3.188;2022-07-29T00:59:17;20;19;
60816;PMS5003;51921;51.518;-3.188;2022-07-29T01:01:42;14;14;
60816;PMS5003;51921;51.518;-3.188;2022-07-29T01:04:07;13;13;
60816;PMS5003;51921;51.518;-3.188;2022-07-29T01:06:33;16;15;
60816;PMS5003;51921;51.518;-3.188;2022-07-29T01:08:58;13;13;
60816;PMS5003;51921;51.518;-3.188;2022-07-29T01:11:24;13;12;
60816;PMS5003;51921;51.518;-3.188;2022-07-29T01:13:49;14;14;
60816;PMS5003;51921;51.518;-3.188;2022-07-29T01:16:17;13;12;
60816;PMS5003;51921;51.518;-3.188;2022-07-29T01:18:42;12;11;
60816;PMS5003;51921;51.518;-3.188;2022-07-29T01:21:18;12;12;
60816;PMS5003;51921;51.518;-3.188;2022-07-29T01:23:40;13;13;
60816;PMS5003;51921;51.518;-3.188;2022-07-29T01:26:00;14;13;
60816;PMS5003;51921;51.518;-3.188;2022-07-29T01:30:47;17;16;
60816;PMS5003;51921;51.518;-3.188;2022-07-29T01:33:13;16;15;
60816;PMS5003;51921;51.518;-3.188;2022-07-29T01:35:38;15;15;
60816;PMS5003;51921;51.518;-3.188;2022-07-29T01:38:05;13;13;
60816;PMS5003;51921;51.518;-3.188;2022-07-29T01:40:30;14;12;
60816;PMS5003;51921;51.518;-3.188;2022-07-29T01:42:54;12;12;
60816;PMS5003;51921;51.518;-3.188;2022-07-29T01:45:20;15;15;
60816;PMS5003;51921;51.518;-3.188;2022-07-29T01:47:46;13;13;
60816;PMS5003;51921;51.518;-3.188;2022-07-29T01:50:10;17;17;
60816;PMS5003;51921;51.518;-3.188;2022-07-29T01:52:36;19;19;
60816;PMS5003;51921;51.518;-3.188;2022-07-29T01:55:01;17;16;
60816;PMS5003;51921;51.518;-3.188;2022-07-29T01:57:26;17;16;
60816;PMS5003;51921;51.518;-3.188;2022-07-29T01:59:50;18;17;
60816;PMS5003;51921;51.518;-3.188;2022-07-29T02:02:16;14;13;
60816;PMS5003;51921;51.518;-3.188;2022-07-29T02:04:41;12;12;
60816;PMS5003;51921;51.518;-3.188;2022-07-29T02:07:07;15;15;
60816;PMS5003;51921;51.518;-3.188;2022-07-29T02:09:33;15;14;
60816;PMS5003;51921;51.518;-3.188;2022-07-29T02:11:57;15;15;
60816;PMS5003;51921;51.518;-3.188;2022-07-29T02:14:23;17;15;
60816;PMS5003;51921;51.518;-3.188;2022-07-29T02:16:50;17;17;
60816;PMS5003;51921;51.518;-3.188;2022-07-29T02:19:14;16;16;
60816;PMS5003;51921;51.518;-3.188;2022-07-29T02:21:39;16;15;
60816;PMS5003;51921;51.518;-3.188;2022-07-29T02:24:05;17;16;
60816;PMS5003;51921;51.518;-3.188;2022-07-29T02:26:30;13;13;
60816;PMS5003;51921;51.518;-3.188;2022-07-29T02:28:56;14;13;
60816;PMS5003;51921;51.518;-3.188;2022-07-29T02:31:21;16;16;
60816;PMS5003;51921;51.518;-3.188;2022-07-29T02:33:46;15;13;
60816;PMS5003;51921;51.518;-3.188;2022-07-29T02:36:12;15;15;
60816;PMS5003;51921;51.518;-3.188;2022-07-29T02:38:37;15;14;
60816;PMS5003;51921;51.518;-3.188;2022-07-29T02:41:03;16;15;
60816;PMS5003;51921;51.518;-3.188;2022-07-29T02:43:28;15;14;
60816;PMS5003;51921;51.518;-3.188;2022-07-29T02:45:53;15;14;
60816;PMS5003;51921;51.518;-3.188;2022-07-29T02:48:18;12;12;
60816;PMS5003;51921;51.518;-3.188;2022-07-29T02:50:44;14;14;
60816;PMS5003;51921;51.518;-3.188;2022-07-29T02:53:12;13;12;
60816;PMS5003;51921;51.518;-3.188;2022-07-29T02:55:37;15;15;
60816;PMS5003;51921;51.518;-3.188;2022-07-29T02:58:01;17;17;
60816;PMS5003;51921;51.518;-3.188;2022-07-29T03:00:26;15;15;
60816;PMS5003;51921;51.518;-3.188;2022-07-29T03:02:52;14;14;
60816;PMS5003;51921;51.518;-3.188;2022-07-29T03:05:17;13;13;
60816;PMS5003;51921;51.518;-3.188;2022-07-29T03:07:43;16;15;
60816;PMS5003;51921;51.518;-3.188;2022-07-29T03:10:07;15;14;
60816;PMS5003;51921;51.518;-3.188;2022-07-29T03:12:33;15;15;
60816;PMS5003;51921;51.518;-3.188;2022-07-29T03:14:58;14;13;
60816;PMS5003;51921;51.518;-3.188;2022-07-29T03:17:24;18;17;
60816;PMS5003;51921;51.518;-3.188;2022-07-29T03:19:49;13;12;
60816;PMS5003;51921;51.518;-3.188;2022-07-29T03:22:14;17;16;
60816;PMS5003;51921;51.518;-3.188;2022-07-29T03:24:40;18;18;
60816;PMS5003;51921;51.518;-3.188;2022-07-29T03:27:05;17;16;
60816;PMS5003;51921;51.518;-3.188;2022-07-29T03:29:31;17;16;
60816;PMS5003;51921;51.518;-3.188;2022-07-29T03:31:56;20;17;
60816;PMS5003;51921;51.518;-3.188;2022-07-29T03:34:21;14;14;
60816;PMS5003;51921;51.518;-3.188;2022-07-29T03:36:47;17;16;
60816;PMS5003;51921;51.518;-3.188;2022-07-29T03:39:13;16;16;
60816;PMS5003;51921;51.518;-3.188;2022-07-29T03:41:38;16;16;
60816;PMS5003;51921;51.518;-3.188;2022-07-29T03:44:03;16;16;
60816;PMS5003;51921;51.518;-3.188;2022-07-29T03:46:28;15;15;
60816;PMS5003;51921;51.518;-3.188;2022-07-29T03:48:55;17;16;
60816;PMS5003;51921;51.518;-3.188;2022-07-29T03:51:19;16;16;
60816;PMS5003;51921;51.518;-3.188;2022-07-29T03:53:44;13;13;
60816;PMS5003;51921;51.518;-3.188;2022-07-29T03:56:10;13;13;
60816;PMS5003;51921;51.518;-3.188;2022-07-29T03:58:35;16;16;
60816;PMS5003;51921;51.518;-3.188;2022-07-29T04:01:00;16;15;
60816;PMS5003;51921;51.518;-3.188;2022-07-29T04:03:26;20;17;
60816;PMS5003;51921;51.518;-3.188;2022-07-29T04:08:16;16;16;
60816;PMS5003;51921;51.518;-3.188;2022-07-29T04:10:42;17;17;
60816;PMS5003;51921;51.518;-3.188;2022-07-29T04:13:07;14;14;
60816;PMS5003;51921;51.518;-3.188;2022-07-29T04:15:32;13;13;
60816;PMS5003;51921;51.518;-3.188;2022-07-29T04:17:58;14;14;
60816;PMS5003;51921;51.518;-3.188;2022-07-29T04:20:23;16;16;
60816;PMS5003;51921;51.518;-3.188;2022-07-29T04:22:48;16;16;
60816;PMS5003;51921;51.518;-3.188;2022-07-29T04:25:14;15;14;
60816;PMS5003;51921;51.518;-3.188;2022-07-29T04:27:39;13;13;
60816;PMS5003;51921;51.518;-3.188;2022-07-29T04:30:05;13;13;
60816;PMS5003;51921;51.518;-3.188;2022-07-29T04:32:30;16;14;
60816;PMS5003;51921;51.518;-3.188;2022-07-29T04:34:55;16;16;
60816;PMS5003;51921;51.518;-3.188;2022-07-29T04:37:21;13;13;
60816;PMS5003;51921;51.518;-3.188;2022-07-29T04:39:46;15;14;
60816;PMS5003;51921;51.518;-3.188;2022-07-29T04:42:11;15;15;
60816;PMS5003;51921;51.518;-3.188;2022-07-29T04:44:37;17;17;
60816;PMS5003;51921;51.518;-3.188;2022-07-29T04:47:07;16;16;
60816;PMS5003;51921;51.518;-3.188;2022-07-29T04:49:28;14;14;
60816;PMS5003;51921;51.518;-3.188;2022-07-29T04:51:54;14;14;
60816;PMS5003;51921;51.518;-3.188;2022-07-29T04:54:19;15;14;
60816;PMS5003;51921;51.518;-3.188;2022-07-29T04:56:45;14;14;
60816;PMS5003;51921;51.518;-3.188;2022-07-29T04:59:10;18;17;
60816;PMS5003;51921;51.518;-3.188;2022-07-29T05:01:36;15;14;
60816;PMS5003;51921;51.518;-3.188;2022-07-29T05:04:01;12;12;
60816;PMS5003;51921;51.518;-3.188;2022-07-29T05:06:27;13;13;
60816;PMS5003;51921;51.518;-3.188;2022-07-29T05:08:52;12;12;
60816;PMS5003;51921;51.518;-3.188;2022-07-29T05:11:18;12;12;
60816;PMS5003;51921;51.518;-3.188;2022-07-29T05:13:43;17;16;
60816;PMS5003;51921;51.518;-3.188;2022-07-29T05:16:09;16;15;
60816;PMS5003;51921;51.518;-3.188;2022-07-29T05:18:34;15;15;
60816;PMS5003;51921;51.518;-3.188;2022-07-29T05:21:00;18;17;
60816;PMS5003;51921;51.518;-3.188;2022-07-29T05:23:25;15;15;
60816;PMS5003;51921;51.518;-3.188;2022-07-29T05:25:51;18;17;
60816;PMS5003;51921;51.518;-3.188;2022-07-29T05:28:16;18;18;
60816;PMS5003;51921;51.518;-3.188;2022-07-29T05:30:41;17;16;
60816;PMS5003;51921;51.518;-3.188;2022-07-29T05:33:07;21;20;
60816;PMS5003;51921;51.518;-3.188;2022-07-29T05:35:32;19;18;
60816;PMS5003;51921;51.518;-3.188;2022-07-29T05:37:58;17;17;
60816;PMS5003;51921;51.518;-3.188;2022-07-29T05:40:23;17;17;
60816;PMS5003;51921;51.518;-3.188;2022-07-29T05:42:49;21;20;
60816;PMS5003;51921;51.518;-3.188;2022-07-29T05:45:14;22;20;
60816;PMS5003;51921;51.518;-3.188;2022-07-29T05:47:40;23;22;
60816;PMS5003;51921;51.518;-3.188;2022-07-29T05:50:05;21;21;
60816;PMS5003;51921;51.518;-3.188;2022-07-29T05:52:30;21;20;
60816;PMS5003;51921;51.518;-3.188;2022-07-29T05:54:55;24;22;
60816;PMS5003;51921;51.518;-3.188;2022-07-29T05:57:22;22;22;
60816;PMS5003;51921;51.518;-3.188;2022-07-29T05:59:47;21;21;
60816;PMS5003;51921;51.518;-3.188;2022-07-29T06:02:12;21;21;
60816;PMS5003;51921;51.518;-3.188;2022-07-29T06:04:37;22;21;
60816;PMS5003;51921;51.518;-3.188;2022-07-29T06:07:03;23;21;
60816;PMS5003;51921;51.518;-3.188;2022-07-29T06:09:28;20;20;
60816;PMS5003;51921;51.518;-3.188;2022-07-29T06:11:54;23;23;
60816;PMS5003;51921;51.518;-3.188;2022-07-29T06:14:19;25;22;
60816;PMS5003;51921;51.518;-3.188;2022-07-29T06:16:45;18;18;
60816;PMS5003;51921;51.518;-3.188;2022-07-29T06:19:11;20;20;
60816;PMS5003;51921;51.518;-3.188;2022-07-29T06:21:36;20;20;
60816;PMS5003;51921;51.518;-3.188;2022-07-29T06:24:01;22;21;
60816;PMS5003;51921;51.518;-3.188;2022-07-29T06:26:27;23;23;
60816;PMS5003;51921;51.518;-3.188;2022-07-29T06:28:53;24;23;
60816;PMS5003;51921;51.518;-3.188;2022-07-29T06:31:18;21;21;
60816;PMS5003;51921;51.518;-3.188;2022-07-29T06:33:43;25;24;
60816;PMS5003;51921;51.518;-3.188;2022-07-29T06:36:08;20;19;
60816;PMS5003;51921;51.518;-3.188;2022-07-29T06:38:34;23;23;
60816;PMS5003;51921;51.518;-3.188;2022-07-29T06:40:59;24;23;
60816;PMS5003;51921;51.518;-3.188;2022-07-29T06:43:24;26;25;
60816;PMS5003;51921;51.518;-3.188;2022-07-29T06:45:50;22;21;
60816;PMS5003;51921;51.518;-3.188;2022-07-29T06:48:15;23;22;
60816;PMS5003;51921;51.518;-3.188;2022-07-29T06:50:41;20;19;
60816;PMS5003;51921;51.518;-3.188;2022-07-29T06:53:06;27;24;
60816;PMS5003;51921;51.518;-3.188;2022-07-29T06:55:31;25;25;
60816;PMS5003;51921;51.518;-3.188;2022-07-29T06:57:57;21;21;
60816;PMS5003;51921;51.518;-3.188;2022-07-29T07:00:22;22;21;
60816;PMS5003;51921;51.518;-3.188;2022-07-29T07:02:47;22;22;
60816;PMS5003;51921;51.518;-3.188;2022-07-29T07:05:12;27;26;
60816;PMS5003;51921;51.518;-3.188;2022-07-29T07:07:38;25;23;
60816;PMS5003;51921;51.518;-3.188;2022-07-29T07:10:03;24;23;
60816;PMS5003;51921;51.518;-3.188;2022-07-29T07:12:28;26;26;
60816;PMS5003;51921;51.518;-3.188;2022-07-29T07:14:54;28;26;
60816;PMS5003;51921;51.518;-3.188;2022-07-29T07:17:20;24;23;
60816;PMS5003;51921;51.518;-3.188;2022-07-29T07:19:45;23;22;
60816;PMS5003;51921;51.518;-3.188;2022-07-29T07:22:10;23;22;
60816;PMS5003;51921;51.518;-3.188;2022-07-29T07:24:35;20;19;
60816;PMS5003;51921;51.518;-3.188;2022-07-29T07:27:01;21;21;
60816;PMS5003;51921;51.518;-3.188;2022-07-29T07:29:26;23;23;
60816;PMS5003;51921;51.518;-3.188;2022-07-29T07:31:51;18;18;
60816;PMS5003;51921;51.518;-3.188;2022-07-29T07:34:17;16;16;
60816;PMS5003;51921;51.518;-3.188;2022-07-29T07:36:42;18;18;
60816;PMS5003;51921;51.518;-3.188;2022-07-29T07:39:07;16;16;
60816;PMS5003;51921;51.518;-3.188;2022-07-29T07:41:33;17;17;
60816;PMS5003;51921;51.518;-3.188;2022-07-29T07:43:58;16;16;
60816;PMS5003;51921;51.518;-3.188;2022-07-29T07:46:23;16;15;
60816;PMS5003;51921;51.518;-3.188;2022-07-29T07:48:49;14;14;
60816;PMS5003;51921;51.518;-3.188;2022-07-29T07:51:14;11;11;
60816;PMS5003;51921;51.518;-3.188;2022-07-29T07:53:40;14;14;
60816;PMS5003;51921;51.518;-3.188;2022-07-29T07:56:06;14;12;
60816;PMS5003;51921;51.518;-3.188;2022-07-29T07:58:31;14;13;
60816;PMS5003;51921;51.518;-3.188;2022-07-29T08:00:56;11;11;
60816;PMS5003;51921;51.518;-3.188;2022-07-29T08:03:22;13;13;
60816;PMS5003;51921;51.518;-3.188;2022-07-29T08:05:48;16;16;
60816;PMS5003;51921;51.518;-3.188;2022-07-29T08:08:13;16;16;
60816;PMS5003;51921;51.518;-3.188;2022-07-29T08:10:38;17;17;
60816;PMS5003;51921;51.518;-3.188;2022-07-29T08:13:04;13;12;
60816;PMS5003;51921;51.518;-3.188;2022-07-29T08:15:29;11;10;
60816;PMS5003;51921;51.518;-3.188;2022-07-29T08:17:55;11;11;
60816;PMS5003;51921;51.518;-3.188;2022-07-29T08:20:20;13;11;
60816;PMS5003;51921;51.518;-3.188;2022-07-29T08:22:45;13;12;
60816;PMS5003;51921;51.518;-3.188;2022-07-29T08:25:10;13;12;
60816;PMS5003;51921;51.518;-3.188;2022-07-29T08:27:36;10;10;
60816;PMS5003;51921;51.518;-3.188;2022-07-29T08:30:01;11;11;
60816;PMS5003;51921;51.518;-3.188;2022-07-29T08:32:26;11;11;
60816;PMS5003;51921;51.518;-3.188;2022-07-29T08:34:52;16;16;
60816;PMS5003;51921;51.518;-3.188;2022-07-29T08:37:17;13;13;
60816;PMS5003;51921;51.518;-3.188;2022-07-29T08:39:42;11;11;
60816;PMS5003;51921;51.518;-3.188;2022-07-29T08:42:08;14;12;
60816;PMS5003;51921;51.518;-3.188;2022-07-29T08:44:33;14;13;
60816;PMS5003;51921;51.518;-3.188;2022-07-29T08:46:58;9;9;
60816;PMS5003;51921;51.518;-3.188;2022-07-29T08:49:23;13;12;
60816;PMS5003;51921;51.518;-3.188;2022-07-29T08:51:48;11;11;
60816;PMS5003;51921;51.518;-3.188;2022-07-29T08:54:16;10;10;
60816;PMS5003;51921;51.518;-3.188;2022-07-29T08:56:39;8;8;
60816;PMS5003;51921;51.518;-3.188;2022-07-29T08:59:05;10;10;
60816;PMS5003;51921;51.518;-3.188;2022-07-29T09:01:30;10;10;
60816;PMS5003;51921;51.518;-3.188;2022-07-29T09:03:55;13;13;
60816;PMS5003;51921;51.518;-3.188;2022-07-29T09:06:20;14;13;
60816;PMS5003;51921;51.518;-3.188;2022-07-29T09:08:46;11;11;
60816;PMS5003;51921;51.518;-3.188;2022-07-29T09:11:11;9;9;
60816;PMS5003;51921;51.518;-3.188;2022-07-29T09:13:36;13;11;
60816;PMS5003;51921;51.518;-3.188;2022-07-29T09:16:02;11;11;
60816;PMS5003;51921;51.518;-3.188;2022-07-29T09:18:33;11;11;
60816;PMS5003;51921;51.518;-3.188;2022-07-29T09:20:52;11;9;
60816;PMS5003;51921;51.518;-3.188;2022-07-29T09:23:17;14;10;
60816;PMS5003;51921;51.518;-3.188;2022-07-29T09:25:43;9;9;
60816;PMS5003;51921;51.518;-3.188;2022-07-29T09:28:09;10;10;
60816;PMS5003;51921;51.518;-3.188;2022-07-29T09:30:33;12;12;
60816;PMS5003;51921;51.518;-3.188;2022-07-29T09:33:00;11;11;
60816;PMS5003;51921;51.518;-3.188;2022-07-29T09:35:25;13;13;
60816;PMS5003;51921;51.518;-3.188;2022-07-29T09:37:49;9;9;
60816;PMS5003;51921;51.518;-3.188;2022-07-29T09:40:15;12;12;
60816;PMS5003;51921;51.518;-3.188;2022-07-29T09:42:40;10;9;
60816;PMS5003;51921;51.518;-3.188;2022-07-29T09:45:05;11;11;
60816;PMS5003;51921;51.518;-3.188;2022-07-29T09:49:56;9;8;
60816;PMS5003;51921;51.518;-3.188;2022-07-29T09:52:21;10;10;
60816;PMS5003;51921;51.518;-3.188;2022-07-29T09:54:47;11;11;
60816;PMS5003;51921;51.518;-3.188;2022-07-29T09:59:37;13;10;
60816;PMS5003;51921;51.518;-3.188;2022-07-29T10:04:38;11;10;
60816;PMS5003;51921;51.518;-3.188;2022-07-29T10:06:55;11;10;
60816;PMS5003;51921;51.518;-3.188;2022-07-29T10:09:20;13;13;
60816;PMS5003;51921;51.518;-3.188;2022-07-29T10:11:47;17;15;
60816;PMS5003;51921;51.518;-3.188;2022-07-29T10:14:11;20;16;
60816;PMS5003;51921;51.518;-3.188;2022-07-29T10:16:36;12;12;
60816;PMS5003;51921;51.518;-3.188;2022-07-29T10:19:01;11;10;
60816;PMS5003;51921;51.518;-3.188;2022-07-29T10:21:27;12;12;
60816;PMS5003;51921;51.518;-3.188;2022-07-29T10:23:52;10;10;
60816;PMS5003;51921;51.518;-3.188;2022-07-29T10:26:18;10;10;
60816;PMS5003;51921;51.518;-3.188;2022-07-29T10:28:43;11;11;
60816;PMS5003;51921;51.518;-3.188;2022-07-29T10:31:11;12;12;
60816;PMS5003;51921;51.518;-3.188;2022-07-29T10:33:39;10;10;
60816;PMS5003;51921;51.518;-3.188;2022-07-29T10:36:02;13;12;
60816;PMS5003;51921;51.518;-3.188;2022-07-29T10:38:29;10;10;
60816;PMS5003;51921;51.518;-3.188;2022-07-29T10:40:52;9;9;
60816;PMS5003;51921;51.518;-3.188;2022-07-29T10:43:17;9;8;
60816;PMS5003;51921;51.518;-3.188;2022-07-29T10:45:41;10;10;
60816;PMS5003;51921;51.518;-3.188;2022-07-29T10:48:06;9;9;
60816;PMS5003;51921;51.518;-3.188;2022-07-29T10:52:57;6;5;
60816;PMS5003;51921;51.518;-3.188;2022-07-29T10:55:32;9;9;
60816;PMS5003;51921;51.518;-3.188;2022-07-29T11:02:41;10;10;
60816;PMS5003;51921;51.518;-3.188;2022-07-29T11:05:05;9;9;
60816;PMS5003;51921;51.518;-3.188;2022-07-29T11:07:30;14;14;
60816;PMS5003;51921;51.518;-3.188;2022-07-29T11:17:11;10;10;
60816;PMS5003;51921;51.518;-3.188;2022-07-29T11:19:36;8;8;
60816;PMS5003;51921;51.518;-3.188;2022-07-29T11:22:02;8;8;
60816;PMS5003;51921;51.518;-3.188;2022-07-29T11:24:27;11;11;
60816;PMS5003;51921;51.518;-3.188;2022-07-29T11:29:19;8;8;
60816;PMS5003;51921;51.518;-3.188;2022-07-29T11:31:44;8;8;
60816;PMS5003;51921;51.518;-3.188;2022-07-29T11:34:17;11;10;
60816;PMS5003;51921;51.518;-3.188;2022-07-29T11:36:33;12;11;
60816;PMS5003;51921;51.518;-3.188;2022-07-29T11:41:24;13;12;
60816;PMS5003;51921;51.518;-3.188;2022-07-29T11:43:50;12;12;
60816;PMS5003;51921;51.518;-3.188;2022-07-29T11:46:16;11;10;
60816;PMS5003;51921;51.518;-3.188;2022-07-29T11:48:41;10;10;
60816;PMS5003;51921;51.518;-3.188;2022-07-29T11:51:09;8;8;
60816;PMS5003;51921;51.518;-3.188;2022-07-29T11:53:32;10;8;
60816;PMS5003;51921;51.518;-3.188;2022-07-29T11:55:57;13;11;
60816;PMS5003;51921;51.518;-3.188;2022-07-29T11:58:22;7;7;
60816;PMS5003;51921;51.518;-3.188;2022-07-29T12:00:48;11;9;
60816;PMS5003;51921;51.518;-3.188;2022-07-29T12:03:22;11;10;
60816;PMS5003;51921;51.518;-3.188;2022-07-29T12:05:39;11;10;
60816;PMS5003;51921;51.518;-3.188;2022-07-29T12:08:04;13;10;
60816;PMS5003;51921;51.518;-3.188;2022-07-29T12:10:30;10;9;
60816;PMS5003;51921;51.518;-3.188;2022-07-29T12:12:54;8;8;
60816;PMS5003;51921;51.518;-3.188;2022-07-29T12:15:21;10;9;
60816;PMS5003;51921;51.518;-3.188;2022-07-29T12:17:45;11;10;
60816;PMS5003;51921;51.518;-3.188;2022-07-29T12:20:10;11;11;
60816;PMS5003;51921;51.518;-3.188;2022-07-29T12:22:36;6;6;
60816;PMS5003;51921;51.518;-3.188;2022-07-29T12:25:01;7;7;
60816;PMS5003;51921;51.518;-3.188;2022-07-29T12:27:26;8;8;
60816;PMS5003;51921;51.518;-3.188;2022-07-29T12:29:55;8;7;
60816;PMS5003;51921;51.518;-3.188;2022-07-29T12:32:17;9;9;
60816;PMS5003;51921;51.518;-3.188;2022-07-29T12:34:42;7;7;
60816;PMS5003;51921;51.518;-3.188;2022-07-29T12:37:07;7;7;
60816;PMS5003;51921;51.518;-3.188;2022-07-29T12:39:33;9;8;
60816;PMS5003;51921;51.518;-3.188;2022-07-29T12:41:58;7;7;
60816;PMS5003;51921;51.518;-3.188;2022-07-29T12:44:23;9;8;
60816;PMS5003;51921;51.518;-3.188;2022-07-29T12:51:39;7;7;
60816;PMS5003;51921;51.518;-3.188;2022-07-29T12:54:05;6;6;
60816;PMS5003;51921;51.518;-3.188;2022-07-29T12:56:30;7;7;
60816;PMS5003;51921;51.518;-3.188;2022-07-29T12:58:55;7;7;
60816;PMS5003;51921;51.518;-3.188;2022-07-29T13:01:20;8;8;
60816;PMS5003;51921;51.518;-3.188;2022-07-29T13:03:46;6;6;
60816;PMS5003;51921;51.518;-3.188;2022-07-29T13:08:36;5;4;
60816;PMS5003;51921;51.518;-3.188;2022-07-29T13:11:01;4;4;
60816;PMS5003;51921;51.518;-3.188;2022-07-29T13:13:27;7;7;
60816;PMS5003;51921;51.518;-3.188;2022-07-29T13:18:26;6;6;
60816;PMS5003;51921;51.518;-3.188;2022-07-29T13:20:43;8;8;
60816;PMS5003;51921;51.518;-3.188;2022-07-29T13:23:08;5;5;
60816;PMS5003;51921;51.518;-3.188;2022-07-29T13:25:33;8;8;
60816;PMS5003;51921;51.518;-3.188;2022-07-29T13:27:59;5;5;
60816;PMS5003;51921;51.518;-3.188;2022-07-29T13:30:24;7;5;
60816;PMS5003;51921;51.518;-3.188;2022-07-29T13:32:49;7;6;
60816;PMS5003;51921;51.518;-3.188;2022-07-29T13:35:16;7;7;
60816;PMS5003;51921;51.518;-3.188;2022-07-29T13:37:40;4;4;
60816;PMS5003;51921;51.518;-3.188;2022-07-29T13:40:07;6;5;
60816;PMS5003;51921;51.518;-3.188;2022-07-29T13:42:31;6;6;
60816;PMS5003;51921;51.518;-3.188;2022-07-29T13:44:56;5;5;
60816;PMS5003;51921;51.518;-3.188;2022-07-29T13:47:21;6;5;
60816;PMS5003;51921;51.518;-3.188;2022-07-29T13:49:46;5;5;
60816;PMS5003;51921;51.518;-3.188;2022-07-29T13:52:11;7;7;
60816;PMS5003;51921;51.518;-3.188;2022-07-29T13:54:37;7;7;
60816;PMS5003;51921;51.518;-3.188;2022-07-29T13:57:02;7;7;
60816;PMS5003;51921;51.518;-3.188;2022-07-29T13:59:27;5;5;
60816;PMS5003;51921;51.518;-3.188;2022-07-29T14:01:53;7;7;
60816;PMS5003;51921;51.518;-3.188;2022-07-29T14:04:18;7;7;
60816;PMS5003;51921;51.518;-3.188;2022-07-29T14:06:44;5;5;
60816;PMS5003;51921;51.518;-3.188;2022-07-29T14:09:09;7;7;
60816;PMS5003;51921;51.518;-3.188;2022-07-29T14:11:34;7;6;
60816;PMS5003;51921;51.518;-3.188;2022-07-29T14:14:00;5;5;
60816;PMS5003;51921;51.518;-3.188;2022-07-29T14:16:25;5;5;
60816;PMS5003;51921;51.518;-3.188;2022-07-29T14:18:51;6;6;
60816;PMS5003;51921;51.518;-3.188;2022-07-29T14:21:16;7;6;
60816;PMS5003;51921;51.518;-3.188;2022-07-29T14:23:41;8;8;
60816;PMS5003;51921;51.518;-3.188;2022-07-29T14:26:07;6;6;
60816;PMS5003;51921;51.518;-3.188;2022-07-29T14:28:32;7;7;
60816;PMS5003;51921;51.518;-3.188;2022-07-29T14:30:58;5;5;
60816;PMS5003;51921;51.518;-3.188;2022-07-29T14:33:23;5;5;
60816;PMS5003;51921;51.518;-3.188;2022-07-29T14:35:48;6;6;
60816;PMS5003;51921;51.518;-3.188;2022-07-29T14:38:14;5;5;
60816;PMS5003;51921;51.518;-3.188;2022-07-29T14:40:39;7;7;
60816;PMS5003;51921;51.518;-3.188;2022-07-29T14:43:05;8;8;
60816;PMS5003;51921;51.518;-3.188;2022-07-29T14:45:30;6;6;
60816;PMS5003;51921;51.518;-3.188;2022-07-29T14:47:55;8;8;
60816;PMS5003;51921;51.518;-3.188;2022-07-29T14:50:21;8;7;
60816;PMS5003;51921;51.518;-3.188;2022-07-29T14:52:46;7;7;
60816;PMS5003;51921;51.518;-3.188;2022-07-29T14:55:11;7;6;
60816;PMS5003;51921;51.518;-3.188;2022-07-29T15:00:02;7;7;
60816;PMS5003;51921;51.518;-3.188;2022-07-29T15:02:27;8;8;
60816;PMS5003;51921;51.518;-3.188;2022-07-29T15:04:52;7;6;
60816;PMS5003;51921;51.518;-3.188;2022-07-29T15:07:18;6;6;
60816;PMS5003;51921;51.518;-3.188;2022-07-29T15:09:43;6;6;
60816;PMS5003;51921;51.518;-3.188;2022-07-29T15:12:08;6;6;
60816;PMS5003;51921;51.518;-3.188;2022-07-29T15:14:33;5;5;
60816;PMS5003;51921;51.518;-3.188;2022-07-29T15:16:59;5;5;
60816;PMS5003;51921;51.518;-3.188;2022-07-29T15:19:24;8;8;
60816;PMS5003;51921;51.518;-3.188;2022-07-29T15:21:49;6;6;
60816;PMS5003;51921;51.518;-3.188;2022-07-29T15:24:15;6;5;
60816;PMS5003;51921;51.518;-3.188;2022-07-29T15:26:40;8;7;
60816;PMS5003;51921;51.518;-3.188;2022-07-29T15:29:05;6;6;
60816;PMS5003;51921;51.518;-3.188;2022-07-29T15:31:30;7;7;
60816;PMS5003;51921;51.518;-3.188;2022-07-29T15:33:55;7;6;
60816;PMS5003;51921;51.518;-3.188;2022-07-29T15:36:21;7;7;
60816;PMS5003;51921;51.518;-3.188;2022-07-29T15:38:46;7;7;
60816;PMS5003;51921;51.518;-3.188;2022-07-29T15:41:13;6;6;
60816;PMS5003;51921;51.518;-3.188;2022-07-29T15:43:37;7;7;
60816;PMS5003;51921;51.518;-3.188;2022-07-29T15:46:02;6;6;
60816;PMS5003;51921;51.518;-3.188;2022-07-29T15:48:27;6;6;
60816;PMS5003;51921;51.518;-3.188;2022-07-29T15:50:52;6;6;
60816;PMS5003;51921;51.518;-3.188;2022-07-29T15:53:18;7;7;
60816;PMS5003;51921;51.518;-3.188;2022-07-29T15:55:43;7;7;
60816;PMS5003;51921;51.518;-3.188;2022-07-29T15:58:08;6;6;
60816;PMS5003;51921;51.518;-3.188;2022-07-29T16:00:38;6;6;
60816;PMS5003;51921;51.518;-3.188;2022-07-29T16:02:59;6;6;
60816;PMS5003;51921;51.518;-3.188;2022-07-29T16:05:24;6;6;
60816;PMS5003;51921;51.518;-3.188;2022-07-29T16:07:49;6;6;
60816;PMS5003;51921;51.518;-3.188;2022-07-29T16:10:15;6;6;
60816;PMS5003;51921;51.518;-3.188;2022-07-29T16:12:40;7;7;
60816;PMS5003;51921;51.518;-3.188;2022-07-29T16:15:06;5;5;
60816;PMS5003;51921;51.518;-3.188;2022-07-29T16:17:30;7;7;
60816;PMS5003;51921;51.518;-3.188;2022-07-29T16:19:56;6;6;
60816;PMS5003;51921;51.518;-3.188;2022-07-29T16:22:21;8;8;
60816;PMS5003;51921;51.518;-3.188;2022-07-29T16:24:46;9;9;
60816;PMS5003;51921;51.518;-3.188;2022-07-29T16:27:12;6;6;
60816;PMS5003;51921;51.518;-3.188;2022-07-29T16:29:37;8;8;
60816;PMS5003;51921;51.518;-3.188;2022-07-29T16:32:03;8;8;
60816;PMS5003;51921;51.518;-3.188;2022-07-29T16:34:27;8;8;
60816;PMS5003;51921;51.518;-3.188;2022-07-29T16:36:53;9;9;
60816;PMS5003;51921;51.518;-3.188;2022-07-29T16:39:18;8;8;
60816;PMS5003;51921;51.518;-3.188;2022-07-29T16:41:43;9;9;